Federal Way, Washington
Current Conditions -  °F | °C
As of 1:53 PM on Friday 24 Oct 2014 (Local Time) from KSEA Reporting Station
Overcast Overcast  
Wind Chill: 56°   Ceiling: 18000
Heat Index: 56°   Visibility: 10mi
Dew Point: 45°   Wind: 9mph
Humidity: 67%   Direction: 360°N
Pressure: 29.97"   Gusts: NA
Location:  47.3°N, 122.32°W
Report Text: KSEA 242053Z 36008KT 10SM FEW100 OVC180 13/07 A2997 RMK AO2 SLP156 T01330072 58022
Loading
Personal Weather Stations






























Interactive Weather Map
Tropical Storm Tracking
New forecast layout! Learn more

10-Day Weather Forecast

Advertisements
Track Severe Weather on mobile